Time;durP1;ratioP1;P1;durP2;ratioP2;P2;SDS_P1;SDS_P2;PMS_P1;PMS_P2;Temp;Humidity;BMP_temperature;BMP_pressure;BME280_temperature;BME280_humidity;BME280_pressure;Samples;Min_cycle;Max_cycle;Signal;HPM_P1;HPM_P2
2023/04/28 00:00:31;;;;;;;4.70;2.83;;;11.60;99.90;;;;;;5095132;28;20228;-66
2023/04/28 00:02:57;;;;;;;3.90;2.47;;;11.70;99.90;;;;;;5095207;28;20684;-66
2023/04/28 00:05:24;;;;;;;3.90;2.80;;;11.80;99.90;;;;;;5095363;28;20273;-66
2023/04/28 00:07:51;;;;;;;4.40;2.70;;;11.80;99.90;;;;;;5095076;28;20738;-66
2023/04/28 00:10:18;;;;;;;5.93;3.20;;;11.90;99.90;;;;;;5094900;28;20690;-66
2023/04/28 00:12:46;;;;;;;4.13;2.90;;;11.90;99.90;;;;;;5095249;28;20216;-66
2023/04/28 00:15:12;;;;;;;4.57;2.67;;;12.00;99.90;;;;;;5095199;28;20230;-65
2023/04/28 00:17:39;;;;;;;5.07;2.93;;;12.10;99.90;;;;;;5094976;28;20208;-67
2023/04/28 00:20:07;;;;;;;4.77;2.87;;;12.10;99.90;;;;;;5094639;28;20220;-66
2023/04/28 00:22:33;;;;;;;3.20;2.87;;;12.20;99.90;;;;;;5095277;28;20208;-66
2023/04/28 00:25:00;;;;;;;3.73;2.67;;;12.20;99.90;;;;;;5095155;28;20257;-66
2023/04/28 00:27:27;;;;;;;4.87;2.70;;;12.30;99.90;;;;;;5094804;28;20628;-66
2023/04/28 00:29:55;;;;;;;5.77;3.03;;;12.30;99.90;;;;;;5094711;28;20663;-66
2023/04/28 00:32:22;;;;;;;5.27;3.23;;;12.40;99.90;;;;;;5094778;28;20201;-67
2023/04/28 00:34:49;;;;;;;4.20;2.70;;;12.40;99.90;;;;;;5094786;28;20215;-66
2023/04/28 00:37:15;;;;;;;4.27;2.70;;;12.50;99.90;;;;;;5094693;28;20221;-68
2023/04/28 00:39:45;;;;;;;4.23;2.90;;;12.50;99.90;;;;;;5094470;28;20607;-66
2023/04/28 00:42:12;;;;;;;4.53;2.73;;;12.70;99.90;;;;;;5094656;28;20206;-66
2023/04/28 00:44:39;;;;;;;4.50;2.80;;;12.70;99.90;;;;;;5094542;28;20215;-66
2023/04/28 00:47:09;;;;;;;5.27;2.90;;;12.70;99.90;;;;;;5094352;28;20207;-66
2023/04/28 00:49:35;;;;;;;3.30;2.80;;;12.70;99.90;;;;;;5094464;28;20224;-66
2023/04/28 00:52:05;;;;;;;4.93;2.77;;;12.80;99.90;;;;;;5094612;28;20277;-67
2023/04/28 00:54:33;;;;;;;3.23;2.70;;;12.80;99.90;;;;;;5094731;28;20211;-65
2023/04/28 00:57:02;;;;;;;3.07;2.77;;;12.90;99.90;;;;;;5094350;28;20204;-65
2023/04/28 00:59:29;;;;;;;4.97;2.60;;;13.00;99.90;;;;;;5093925;28;20319;-65
2023/04/28 01:01:56;;;;;;;6.07;3.13;;;13.10;99.90;;;;;;5093253;28;20219;-64
2023/04/28 01:04:24;;;;;;;3.83;2.80;;;13.20;99.90;;;;;;5094551;28;20287;-65
2023/04/28 01:06:53;;;;;;;3.80;2.43;;;13.30;99.90;;;;;;5094107;28;20216;-65
2023/04/28 01:09:20;;;;;;;4.90;2.63;;;13.30;99.90;;;;;;5093735;28;20767;-65
2023/04/28 01:11:47;;;;;;;5.47;2.57;;;13.40;99.90;;;;;;5093987;28;20211;-66
2023/04/28 01:14:13;;;;;;;2.93;2.60;;;13.30;99.90;;;;;;5093982;28;20200;-65
2023/04/28 01:16:41;;;;;;;5.07;2.83;;;13.30;99.90;;;;;;5094088;28;20216;-65
2023/04/28 01:19:11;;;;;;;3.53;2.70;;;13.30;99.90;;;;;;5093622;28;20293;-67
2023/04/28 01:21:39;;;;;;;4.43;2.60;;;13.30;99.90;;;;;;5093968;28;20528;-65
2023/04/28 01:24:08;;;;;;;3.00;2.43;;;13.20;99.90;;;;;;5093759;28;20215;-66
2023/04/28 01:26:34;;;;;;;3.70;2.70;;;13.30;99.90;;;;;;5093671;28;20249;-67
2023/04/28 01:29:01;;;;;;;4.33;2.70;;;13.30;99.90;;;;;;5093547;28;20646;-66
2023/04/28 01:31:29;;;;;;;4.37;2.63;;;13.30;99.90;;;;;;5093537;28;20204;-66
2023/04/28 01:33:56;;;;;;;3.53;2.77;;;13.40;99.90;;;;;;5093720;28;20204;-66
2023/04/28 01:36:23;;;;;;;6.37;3.00;;;13.50;99.90;;;;;;5093587;28;20211;-67
2023/04/28 01:38:50;;;;;;;6.47;3.00;;;13.50;99.90;;;;;;5094133;28;20323;-65
2023/04/28 01:41:18;;;;;;;4.37;2.97;;;13.60;99.90;;;;;;5093203;28;20231;-66
2023/04/28 01:43:45;;;;;;;4.10;3.10;;;13.50;99.90;;;;;;5093955;28;20261;-67
2023/04/28 01:46:11;;;;;;;3.53;2.63;;;13.40;99.90;;;;;;5093697;28;20209;-65
2023/04/28 01:48:38;;;;;;;4.03;2.70;;;13.50;99.90;;;;;;5093151;28;20285;-65
2023/04/28 01:51:05;;;;;;;4.53;2.60;;;13.50;99.90;;;;;;5092896;28;20560;-65
2023/04/28 01:53:31;;;;;;;3.80;2.33;;;13.60;99.90;;;;;;5093166;28;20212;-66
2023/04/28 01:55:58;;;;;;;4.20;2.53;;;13.70;99.90;;;;;;5093045;28;20231;-65
2023/04/28 01:58:26;;;;;;;6.30;2.60;;;13.70;99.90;;;;;;5092984;28;20780;-65
2023/04/28 02:00:53;;;;;;;3.10;2.30;;;13.80;99.90;;;;;;5093016;28;20228;-66
2023/04/28 02:03:20;;;;;;;4.90;2.60;;;13.70;99.90;;;;;;5093097;28;20208;-66
2023/04/28 02:05:47;;;;;;;2.87;2.30;;;13.70;99.90;;;;;;5093038;28;20257;-65
2023/04/28 02:08:13;;;;;;;3.07;2.33;;;13.70;99.90;;;;;;5092829;28;20224;-65
2023/04/28 02:10:40;;;;;;;4.87;2.50;;;13.70;99.90;;;;;;5092742;28;20211;-66
2023/04/28 02:13:07;;;;;;;2.83;2.53;;;13.70;99.90;;;;;;5092710;28;20575;-66
2023/04/28 02:15:39;;;;;;;3.50;2.67;;;13.70;99.90;;;;;;5092865;28;20243;-65
2023/04/28 02:18:05;;;;;;;3.87;2.60;;;13.70;99.90;;;;;;5092882;28;20224;-66
2023/04/28 02:20:32;;;;;;;4.60;2.70;;;13.60;99.90;;;;;;5092481;28;20220;-66
2023/04/28 02:22:59;;;;;;;3.10;2.53;;;13.50;99.90;;;;;;5092600;28;20265;-65
2023/04/28 02:25:25;;;;;;;4.47;2.70;;;13.40;99.90;;;;;;5092850;28;20216;-66
2023/04/28 02:27:52;;;;;;;3.53;2.60;;;13.50;99.90;;;;;;5092748;28;20224;-67
2023/04/28 02:30:19;;;;;;;5.27;2.33;;;13.50;99.90;;;;;;5092300;28;20211;-66
2023/04/28 02:32:48;;;;;;;5.17;2.67;;;13.50;99.90;;;;;;5092579;28;20215;-66
2023/04/28 02:35:15;;;;;;;3.93;2.57;;;13.50;99.90;;;;;;5092358;28;20646;-67
2023/04/28 02:37:41;;;;;;;4.63;2.43;;;13.60;99.90;;;;;;5092135;28;20595;-66
2023/04/28 02:40:09;;;;;;;2.90;2.50;;;13.70;99.90;;;;;;5092295;28;20245;-66
2023/04/28 02:42:35;;;;;;;3.20;2.20;;;13.60;99.90;;;;;;5092717;28;20279;-66
2023/04/28 02:45:02;;;;;;;3.80;2.20;;;13.60;99.90;;;;;;5092390;28;20212;-66
2023/04/28 02:47:29;;;;;;;2.77;2.30;;;13.60;99.90;;;;;;5092044;28;20553;-67
2023/04/28 02:49:57;;;;;;;3.37;2.50;;;13.60;99.90;;;;;;5092086;28;20238;-67
2023/04/28 02:52:23;;;;;;;4.43;2.43;;;13.50;99.90;;;;;;5092511;28;20204;-65
2023/04/28 02:54:53;;;;;;;3.13;2.30;;;13.50;99.90;;;;;;5092191;28;20675;-66
2023/04/28 02:57:20;;;;;;;2.63;2.40;;;13.50;99.90;;;;;;5092177;28;20204;-66
2023/04/28 02:59:46;;;;;;;3.93;2.70;;;13.50;99.90;;;;;;5091860;28;20641;-66
2023/04/28 03:02:13;;;;;;;3.03;2.50;;;13.50;99.90;;;;;;5092314;28;20216;-66
2023/04/28 03:04:40;;;;;;;3.13;2.37;;;13.50;99.90;;;;;;5091955;28;20680;-66
2023/04/28 03:07:08;;;;;;;2.40;2.10;;;13.60;99.90;;;;;;5092340;28;20588;-66
2023/04/28 03:09:35;;;;;;;3.50;2.60;;;13.70;99.90;;;;;;5091837;28;20224;-67
2023/04/28 03:12:02;;;;;;;2.53;2.33;;;13.80;99.90;;;;;;5092101;28;20226;-66
2023/04/28 03:14:28;;;;;;;3.97;2.27;;;13.90;99.90;;;;;;5091967;28;20242;-67
2023/04/28 03:16:56;;;;;;;3.87;2.40;;;14.00;99.90;;;;;;5091963;28;20265;-68
2023/04/28 03:19:23;;;;;;;4.80;2.20;;;14.10;99.90;;;;;;5091597;28;20230;-67
2023/04/28 03:21:50;;;;;;;2.80;2.50;;;14.10;99.90;;;;;;5092040;28;20233;-66
2023/04/28 03:24:18;;;;;;;3.43;2.30;;;14.20;99.90;;;;;;5092373;28;20273;-66
2023/04/28 03:26:44;;;;;;;4.50;2.47;;;14.30;99.90;;;;;;5096229;28;20208;-66
2023/04/28 03:29:11;;;;;;;3.47;2.30;;;14.30;99.90;;;;;;5095904;28;20718;-66
2023/04/28 03:31:38;;;;;;;3.27;2.47;;;14.40;99.90;;;;;;5095839;28;20636;-67
2023/04/28 03:34:05;;;;;;;3.70;2.30;;;14.40;99.90;;;;;;5096042;28;20223;-66
2023/04/28 03:36:31;;;;;;;2.60;2.13;;;14.40;99.90;;;;;;5095980;28;20220;-66
2023/04/28 03:38:58;;;;;;;3.60;2.30;;;14.30;99.90;;;;;;5095649;28;20285;-66
2023/04/28 03:41:26;;;;;;;3.13;2.23;;;14.30;99.90;;;;;;5095548;28;20219;-66
2023/04/28 03:43:55;;;;;;;3.80;2.93;;;14.30;99.90;;;;;;5095609;28;20664;-66
2023/04/28 03:46:22;;;;;;;3.87;2.90;;;14.30;99.90;;;;;;5095366;28;20222;-66
2023/04/28 03:48:49;;;;;;;3.47;2.50;;;14.30;99.90;;;;;;5095647;28;20228;-66
2023/04/28 03:51:16;;;;;;;6.03;3.20;;;14.20;99.90;;;;;;5095460;28;20428;-66
2023/04/28 03:53:42;;;;;;;2.80;2.50;;;14.10;99.90;;;;;;5095641;28;20208;-66
2023/04/28 03:56:09;;;;;;;3.53;3.03;;;14.10;99.90;;;;;;5095369;28;20573;-67
2023/04/28 03:58:37;;;;;;;6.10;3.10;;;14.00;99.90;;;;;;5095447;28;20224;-66
2023/04/28 04:01:04;;;;;;;3.73;2.83;;;13.80;99.90;;;;;;5095081;28;20220;-66
2023/04/28 04:03:31;;;;;;;4.47;2.80;;;13.90;99.90;;;;;;5095663;28;20204;-66
2023/04/28 04:05:58;;;;;;;4.63;2.67;;;14.00;99.90;;;;;;5095448;28;20239;-66
2023/04/28 04:08:25;;;;;;;5.87;3.83;;;14.00;99.90;;;;;;5095273;28;20228;-67
2023/04/28 04:10:53;;;;;;;4.00;2.97;;;14.10;99.90;;;;;;5095031;28;20207;-66
2023/04/28 04:13:20;;;;;;;3.53;2.80;;;14.20;99.90;;;;;;5095039;28;20200;-66
2023/04/28 04:15:48;;;;;;;5.50;3.90;;;14.20;99.90;;;;;;5095222;28;20549;-69
2023/04/28 04:18:15;;;;;;;3.53;2.80;;;14.30;99.90;;;;;;5095148;28;20224;-66
2023/04/28 04:20:42;;;;;;;3.97;2.90;;;14.30;99.90;;;;;;5094790;28;20231;-66
2023/04/28 04:23:08;;;;;;;3.93;2.70;;;14.30;99.90;;;;;;5095133;28;20227;-65
2023/04/28 04:25:35;;;;;;;3.20;2.47;;;14.20;99.90;;;;;;5094872;28;20204;-65
2023/04/28 04:28:02;;;;;;;4.10;2.57;;;14.20;99.90;;;;;;5095145;28;20273;-65
2023/04/28 04:30:29;;;;;;;3.83;2.43;;;14.10;99.90;;;;;;5094585;28;20208;-66
2023/04/28 04:32:57;;;;;;;5.80;2.77;;;14.00;99.90;;;;;;5094830;28;20250;-66
2023/04/28 04:35:24;;;;;;;4.00;2.53;;;14.00;99.90;;;;;;5094936;28;20204;-65
2023/04/28 04:37:50;;;;;;;3.93;3.33;;;13.90;99.90;;;;;;5094599;28;20651;-65
2023/04/28 04:40:17;;;;;;;5.13;3.00;;;13.80;99.90;;;;;;5094326;28;20632;-66
2023/04/28 04:42:44;;;;;;;3.23;2.80;;;13.70;99.90;;;;;;5094471;28;20558;-66
2023/04/28 04:45:11;;;;;;;4.43;2.67;;;13.70;99.90;;;;;;5094654;28;20211;-65
2023/04/28 04:47:38;;;;;;;4.03;2.90;;;13.70;99.90;;;;;;5094233;28;20258;-68
2023/04/28 04:50:07;;;;;;;3.20;2.80;;;13.80;99.90;;;;;;5094246;28;20672;-65
2023/04/28 04:52:34;;;;;;;3.63;2.40;;;13.80;99.90;;;;;;5094346;28;20208;-66
2023/04/28 04:55:00;;;;;;;3.20;2.87;;;13.90;99.90;;;;;;5094205;28;20215;-66
2023/04/28 04:57:27;;;;;;;3.83;2.70;;;13.80;99.90;;;;;;5094008;28;20205;-67
2023/04/28 04:59:54;;;;;;;5.33;2.60;;;13.80;99.90;;;;;;5094268;28;20211;-66
2023/04/28 05:02:20;;;;;;;3.20;2.73;;;13.80;99.90;;;;;;5094134;28;20228;-67
2023/04/28 05:04:47;;;;;;;3.57;2.90;;;13.80;99.90;;;;;;5094288;28;20204;-67
2023/04/28 05:07:15;;;;;;;6.53;3.70;;;13.80;99.90;;;;;;5094367;28;20668;-67
2023/04/28 05:09:42;;;;;;;5.37;3.20;;;13.90;99.90;;;;;;5093700;28;20658;-68
2023/04/28 05:12:09;;;;;;;3.47;3.10;;;13.90;99.90;;;;;;5094460;28;20205;-66
2023/04/28 05:14:35;;;;;;;3.93;3.37;;;13.90;99.90;;;;;;5094299;28;20200;-67
2023/04/28 05:17:02;;;;;;;4.97;3.90;;;14.00;99.90;;;;;;5093979;28;20454;-66
2023/04/28 05:19:29;;;;;;;4.43;3.43;;;14.00;99.90;;;;;;5093856;28;20232;-66
2023/04/28 05:21:56;;;;;;;5.50;3.40;;;14.00;99.90;;;;;;5093437;28;20216;-67
2023/04/28 05:24:24;;;;;;;3.80;3.07;;;14.20;99.90;;;;;;5093612;28;20575;-68
2023/04/28 05:26:51;;;;;;;5.07;3.20;;;14.30;99.90;;;;;;5094012;28;20214;-65
2023/04/28 05:29:18;;;;;;;5.43;3.30;;;14.50;99.90;;;;;;5093863;28;20230;-66
2023/04/28 05:31:44;;;;;;;3.67;2.97;;;14.60;99.90;;;;;;5093661;28;20201;-68
2023/04/28 05:34:11;;;;;;;3.80;3.40;;;14.70;99.90;;;;;;5093703;28;20208;-66
2023/04/28 05:36:38;;;;;;;3.90;3.00;;;14.80;99.90;;;;;;5093511;28;20208;-66
2023/04/28 05:39:05;;;;;;;3.17;2.87;;;14.90;99.90;;;;;;5093567;28;20273;-66
2023/04/28 05:41:35;;;;;;;3.57;3.17;;;15.00;99.90;;;;;;5093413;28;20231;-66
2023/04/28 05:44:02;;;;;;;3.90;2.90;;;15.20;99.90;;;;;;5093355;28;20686;-67
2023/04/28 05:46:28;;;;;;;4.97;2.93;;;15.20;99.90;;;;;;5092875;28;20290;-67
2023/04/28 05:48:55;;;;;;;3.23;2.57;;;15.30;99.90;;;;;;5092707;28;20224;-66
2023/04/28 05:51:22;;;;;;;4.97;2.80;;;15.30;99.90;;;;;;5092906;28;20557;-67
2023/04/28 05:53:48;;;;;;;7.97;3.83;;;15.40;99.90;;;;;;5093447;28;20208;-67
2023/04/28 05:56:16;;;;;;;3.20;2.77;;;15.50;99.90;;;;;;5093539;28;20208;-67
2023/04/28 05:58:44;;;;;;;3.43;2.70;;;15.50;99.90;;;;;;5093184;28;20315;-66
2023/04/28 06:01:11;;;;;;;3.30;2.53;;;15.40;99.90;;;;;;5092678;28;20246;-66
2023/04/28 06:03:39;;;;;;;4.13;2.70;;;15.50;99.90;;;;;;5093094;28;20295;-66
2023/04/28 06:06:06;;;;;;;3.37;2.70;;;15.50;99.90;;;;;;5092710;28;20215;-66
2023/04/28 06:08:33;;;;;;;4.77;3.30;;;15.60;99.90;;;;;;5093425;28;20224;-66
2023/04/28 06:11:00;;;;;;;4.63;2.30;;;15.50;99.90;;;;;;5092772;28;20212;-67
2023/04/28 06:13:27;;;;;;;3.53;2.60;;;15.50;99.90;;;;;;5092914;28;20215;-66
2023/04/28 06:15:55;;;;;;;3.80;2.43;;;15.50;99.90;;;;;;5092898;28;20204;-67
2023/04/28 06:18:23;;;;;;;2.97;2.50;;;15.50;99.90;;;;;;5092653;28;20293;-66
2023/04/28 06:20:49;;;;;;;3.73;2.53;;;15.50;99.90;;;;;;5092558;28;20572;-65
2023/04/28 06:23:16;;;;;;;3.90;2.40;;;15.60;99.90;;;;;;5092801;28;20204;-65
2023/04/28 06:25:43;;;;;;;5.40;2.80;;;15.60;99.90;;;;;;5093628;28;20208;-65
2023/04/28 06:28:12;;;;;;;3.50;2.60;;;15.60;99.90;;;;;;5092540;28;20240;-65
2023/04/28 06:30:38;;;;;;;3.60;2.60;;;15.60;99.90;;;;;;5092315;28;20235;-62
2023/04/28 06:33:06;;;;;;;4.40;3.17;;;15.70;99.90;;;;;;5092284;28;20201;-64
2023/04/28 06:35:35;;;;;;;5.20;2.73;;;15.70;99.90;;;;;;5092382;28;20204;-63
2023/04/28 06:38:02;;;;;;;3.33;2.73;;;15.70;99.90;;;;;;5092340;28;20250;-63
2023/04/28 06:40:29;;;;;;;5.72;3.63;;;15.80;99.90;;;;;;5092392;28;20291;-64
2023/04/28 06:42:56;;;;;;;5.90;4.40;;;15.70;99.90;;;;;;5092280;28;20227;-64
2023/04/28 06:45:22;;;;;;;4.43;2.20;;;15.70;99.90;;;;;;5092228;28;20253;-65
2023/04/28 06:47:50;;;;;;;4.13;2.20;;;15.80;99.90;;;;;;5091988;28;20232;-62
2023/04/28 06:50:18;;;;;;;5.20;2.50;;;15.70;99.90;;;;;;5092112;28;20207;-64
2023/04/28 06:52:44;;;;;;;2.70;2.23;;;15.70;99.90;;;;;;5092238;28;20270;-64
2023/04/28 06:55:15;;;;;;;4.28;2.40;;;15.70;99.90;;;;;;5092254;28;20586;-63
2023/04/28 06:57:42;;;;;;;2.93;2.37;;;15.60;99.90;;;;;;5092311;28;20228;-64
2023/04/28 07:00:09;;;;;;;4.40;2.07;;;15.60;99.90;;;;;;5091008;28;20444;-63
2023/04/28 07:02:36;;;;;;;2.70;2.10;;;15.60;99.90;;;;;;5092431;28;20232;-63
2023/04/28 07:05:04;;;;;;;2.13;1.93;;;15.60;99.90;;;;;;5092017;28;20231;-65
2023/04/28 07:07:32;;;;;;;3.00;2.10;;;15.60;99.90;;;;;;5091985;28;20208;-65
2023/04/28 07:09:59;;;;;;;3.83;2.70;;;15.50;99.90;;;;;;5091781;28;20290;-64
2023/04/28 07:12:27;;;;;;;2.93;2.57;;;15.40;99.90;;;;;;5092030;28;20211;-64
2023/04/28 07:14:54;;;;;;;4.33;3.00;;;15.30;99.90;;;;;;5091764;28;20216;-65
2023/04/28 07:17:21;;;;;;;4.30;2.73;;;15.20;99.90;;;;;;5092220;28;20208;-64
2023/04/28 07:19:49;;;;;;;2.70;2.40;;;15.10;99.90;;;;;;5091750;28;20298;-64
2023/04/28 07:22:16;;;;;;;4.33;2.83;;;15.00;99.90;;;;;;5092005;28;20319;-64
2023/04/28 07:24:44;;;;;;;3.43;2.73;;;14.90;99.90;;;;;;5091918;28;20207;-64
2023/04/28 07:27:11;;;;;;;3.47;2.70;;;14.60;99.90;;;;;;5091537;28;20216;-66
2023/04/28 07:29:38;;;;;;;6.40;2.70;;;14.60;99.90;;;;;;5049203;28;20601;-66
2023/04/28 07:32:07;;;;;;;4.10;3.00;;;14.50;99.90;;;;;;5050380;28;20193;-65
2023/04/28 07:34:34;;;;;;;5.67;3.67;;;14.40;99.90;;;;;;5050478;28;20213;-66
2023/04/28 07:37:01;;;;;;;4.57;2.93;;;14.40;99.90;;;;;;5067747;28;20220;-65
2023/04/28 07:39:28;;;;;;;5.43;3.13;;;14.40;99.90;;;;;;5071100;28;20240;-65
2023/04/28 07:41:57;;;;;;;3.30;3.00;;;14.20;99.90;;;;;;5071046;28;20700;-65
2023/04/28 07:44:24;;;;;;;4.37;3.10;;;14.10;99.90;;;;;;5071926;28;20212;-65
2023/04/28 07:46:51;;;;;;;4.37;3.10;;;14.00;99.90;;;;;;5072153;28;20262;-66
2023/04/28 07:49:18;;;;;;;4.07;3.10;;;13.90;99.90;;;;;;5072635;28;20232;-66
2023/04/28 07:51:45;;;;;;;3.73;3.33;;;14.00;99.90;;;;;;5071282;28;20201;-65
2023/04/28 07:54:11;;;;;;;5.57;3.70;;;14.00;99.90;;;;;;5071808;28;20211;-65
2023/04/28 07:56:38;;;;;;;3.77;2.83;;;14.10;99.90;;;;;;5070647;28;20220;-66
2023/04/28 07:59:06;;;;;;;3.90;3.20;;;14.20;99.90;;;;;;5067366;28;20743;-66
2023/04/28 08:01:33;;;;;;;4.50;3.50;;;14.40;99.90;;;;;;5064794;28;20220;-66
2023/04/28 08:03:59;;;;;;;6.53;4.27;;;14.40;99.90;;;;;;5070630;28;20197;-65
2023/04/28 08:06:26;;;;;;;7.00;4.87;;;14.20;99.90;;;;;;5070482;28;20220;-66
2023/04/28 08:08:53;;;;;;;7.03;3.90;;;14.30;99.90;;;;;;5070560;28;20224;-63
2023/04/28 08:11:20;;;;;;;3.50;3.13;;;14.40;99.90;;;;;;5073053;28;20564;-66
2023/04/28 08:13:47;;;;;;;5.87;3.40;;;14.40;99.90;;;;;;5075419;28;20259;-68
2023/04/28 08:16:15;;;;;;;5.53;4.57;;;14.40;99.90;;;;;;5074945;28;20212;-68
2023/04/28 08:18:42;;;;;;;5.67;3.37;;;14.40;99.90;;;;;;5074084;28;20232;-67
2023/04/28 08:21:09;;;;;;;6.77;4.17;;;14.40;99.90;;;;;;5073622;28;20223;-67
2023/04/28 08:23:35;;;;;;;34.97;4.63;;;14.50;99.90;;;;;;5073554;28;20556;-67
2023/04/28 08:26:02;;;;;;;4.53;3.70;;;14.30;99.90;;;;;;5074006;28;20217;-66
2023/04/28 08:28:29;;;;;;;5.70;3.87;;;14.30;99.90;;;;;;5074282;28;20601;-67
2023/04/28 08:30:56;;;;;;;5.17;4.23;;;14.40;99.90;;;;;;5073965;28;20213;-65
2023/04/28 08:33:24;;;;;;;4.60;4.03;;;14.40;99.90;;;;;;5074602;28;20197;-67
2023/04/28 08:35:51;;;;;;;5.60;4.37;;;14.50;99.90;;;;;;5073207;28;20200;-67
2023/04/28 08:38:18;;;;;;;4.97;4.47;;;14.70;99.90;;;;;;5073533;28;20303;-68
2023/04/28 08:40:45;;;;;;;5.07;4.57;;;14.90;99.90;;;;;;5073237;28;20223;-66
2023/04/28 08:43:12;;;;;;;4.87;4.10;;;15.00;99.90;;;;;;5073074;28;20239;-69
2023/04/28 08:45:41;;;;;;;5.10;4.63;;;15.00;99.90;;;;;;5073723;28;20278;-66
2023/04/28 08:48:18;;;;;;;6.43;4.90;;;15.10;99.90;;;;;;5073014;28;20225;-64
2023/04/28 08:50:49;;;;;;;5.93;4.43;;;15.10;99.90;;;;;;5072675;28;20243;-68
2023/04/28 08:53:22;;;;;;;5.30;4.10;;;15.30;99.90;;;;;;5073506;28;20197;-65
2023/04/28 08:55:51;;;;;;;4.07;3.37;;;15.50;99.90;;;;;;5073549;28;20204;-66
2023/04/28 08:58:19;;;;;;;6.03;3.90;;;15.70;99.90;;;;;;5072842;28;20229;-64
2023/04/28 09:00:46;;;;;;;4.30;3.80;;;16.00;99.90;;;;;;5072707;28;20209;-64
2023/04/28 09:03:13;;;;;;;5.67;3.90;;;16.20;99.90;;;;;;5072843;28;20229;-66
2023/04/28 09:05:40;;;;;;;4.17;3.67;;;16.40;99.90;;;;;;5072938;28;20291;-64
2023/04/28 09:08:08;;;;;;;5.30;3.00;;;16.60;99.90;;;;;;5073250;28;20283;-65
2023/04/28 09:10:34;;;;;;;4.78;3.53;;;16.70;99.90;;;;;;5072899;28;20627;-65
2023/04/28 09:13:01;;;;;;;4.05;2.85;;;16.80;99.90;;;;;;5072296;28;20208;-67
2023/04/28 09:15:31;;;;;;;4.97;3.63;;;16.90;99.90;;;;;;5072959;28;20228;-65
2023/04/28 09:17:58;;;;;;;5.65;3.10;;;17.00;99.90;;;;;;5074109;28;20254;-64
2023/04/28 09:20:26;;;;;;;5.07;2.90;;;17.30;99.90;;;;;;5073851;28;20219;-65
2023/04/28 09:22:55;;;;;;;6.50;3.00;;;17.40;99.90;;;;;;5072622;28;20220;-66
2023/04/28 09:25:25;;;;;;;3.33;3.03;;;17.50;99.90;;;;;;5073516;28;20216;-65
2023/04/28 09:27:52;;;;;;;5.13;2.92;;;17.60;99.90;;;;;;5073551;28;20233;-66
2023/04/28 09:30:20;;;;;;;3.08;2.50;;;17.80;99.90;;;;;;5073389;28;20201;-66
2023/04/28 09:33:05;;;;;;;3.83;3.40;;;18.00;99.90;;;;;;5073538;28;20205;-67
2023/04/28 09:35:39;;;;;;;65.68;58.47;;;18.20;99.90;;;;;;5073450;28;20620;-67
2023/04/28 09:38:06;;;;;;;6.43;4.95;;;18.30;99.90;;;;;;5073345;28;20240;-67
2023/04/28 09:40:49;;;;;;;4.32;2.58;;;18.40;99.90;;;;;;5073700;28;20212;-65
2023/04/28 09:43:24;;;;;;;2.78;2.30;;;18.60;99.90;;;;;;5073363;28;20771;-65
2023/04/28 09:45:51;;;;;;;4.85;2.80;;;18.80;99.90;;;;;;5073255;28;20216;-65
2023/04/28 09:48:17;;;;;;;2.70;2.50;;;18.90;99.90;;;;;;5073099;28;20235;-67
2023/04/28 09:50:45;;;;;;;5.43;4.70;;;19.10;99.90;;;;;;5073053;28;20200;-68
2023/04/28 09:53:12;;;;;;;2.58;2.28;;;19.30;99.90;;;;;;5073019;28;20586;-67
2023/04/28 09:55:45;;;;;;;3.38;2.20;;;19.40;99.90;;;;;;5073095;28;20295;-69
2023/04/28 09:58:14;;;;;;;6.13;5.45;;;19.60;99.90;;;;;;5073129;28;20229;-68
2023/04/28 10:00:41;;;;;;;4.63;3.20;;;19.90;99.90;;;;;;5073000;28;20205;-69
2023/04/28 10:03:10;;;;;;;13.48;11.18;;;20.20;99.90;;;;;;5072619;28;20688;-68
2023/04/28 10:05:39;;;;;;;5.10;3.40;;;20.50;99.90;;;;;;5072732;28;20209;-68
2023/04/28 10:08:06;;;;;;;2.13;1.90;;;20.60;99.90;;;;;;5072629;28;20600;-69
2023/04/28 10:10:33;;;;;;;3.47;2.08;;;20.70;99.90;;;;;;5072585;28;20201;-68
2023/04/28 10:13:02;;;;;;;2.17;1.77;;;20.80;99.90;;;;;;5072514;28;20277;-68
2023/04/28 10:15:29;;;;;;;2.80;2.10;;;20.70;99.90;;;;;;5072750;28;20201;-68
2023/04/28 10:17:55;;;;;;;2.97;2.10;;;20.70;99.90;;;;;;5072653;28;20608;-68
2023/04/28 10:20:24;;;;;;;3.15;1.75;;;20.70;99.90;;;;;;5073328;28;20581;-68
2023/04/28 10:23:02;;;;;;;2.78;1.70;;;20.90;99.90;;;;;;5072331;28;20640;-69
2023/04/28 10:25:32;;;;;;;2.75;2.00;;;20.90;99.90;;;;;;5072114;28;20204;-68
2023/04/28 10:28:04;;;;;;;2.38;1.73;;;21.10;99.90;;;;;;5072535;28;20250;-66
2023/04/28 10:30:31;;;;;;;2.70;1.52;;;21.60;99.90;;;;;;5071777;28;20291;-67
2023/04/28 10:33:23;;;;;;;2.47;1.50;;;22.00;99.90;;;;;;5072362;28;20196;-67
2023/04/28 10:35:50;;;;;;;2.13;1.38;;;21.90;99.90;;;;;;5072389;28;20659;-67
2023/04/28 10:38:20;;;;;;;2.15;1.40;;;21.80;99.90;;;;;;5072286;28;20236;-66
2023/04/28 10:40:47;;;;;;;1.75;1.50;;;21.90;99.90;;;;;;5072318;28;20200;-67
2023/04/28 10:43:35;;;;;;;2.38;1.55;;;21.90;99.90;;;;;;5072354;28;20708;-68
2023/04/28 10:46:05;;;;;;;2.35;1.50;;;22.30;99.90;;;;;;5073740;28;20262;-67
2023/04/28 10:48:57;;;;;;;4.13;1.67;;;22.70;99.90;;;;;;5073117;28;20232;-67
2023/04/28 10:51:28;;;;;;;4.13;1.70;;;23.10;99.90;;;;;;5071877;28;20205;-67
2023/04/28 10:54:18;;;;;;;2.47;1.80;;;23.40;99.90;;;;;;5072367;28;20211;-67
2023/04/28 10:57:20;;;;;;;19.98;18.00;;;23.60;99.90;;;;;;5072457;28;20213;-70
2023/04/28 10:59:49;;;;;;;1.90;1.52;;;23.90;99.90;;;;;;5071804;28;20220;-67
2023/04/28 11:02:41;;;;;;;2.65;1.92;;;23.90;99.90;;;;;;5071490;28;20722;-67
2023/04/28 11:05:17;;;;;;;3.95;2.45;;;24.00;99.90;;;;;;5071846;28;20593;-67
2023/04/28 11:08:16;;;;;;;3.33;2.00;;;23.90;99.90;;;;;;5071678;28;20330;-67
2023/04/28 11:11:18;;;;;;;3.00;2.00;;;23.80;99.90;;;;;;5061202;28;20258;-69
2023/04/28 11:13:46;;;;;;;4.38;1.85;;;23.70;99.90;;;;;;5072008;28;20234;-68
2023/04/28 11:16:17;;;;;;;3.80;3.33;;;23.50;99.90;;;;;;5071462;28;20204;-67
2023/04/28 11:19:03;;;;;;;3.10;1.90;;;23.30;99.90;;;;;;5061866;28;20222;-64
2023/04/28 11:21:30;;;;;;;4.95;2.63;;;23.10;99.90;;;;;;5049467;28;20245;-66
2023/04/28 11:23:58;;;;;;;3.90;3.50;;;22.90;99.90;;;;;;5050696;28;20640;-66
2023/04/28 11:26:25;;;;;;;4.93;2.70;;;22.70;99.90;;;;;;5050637;28;20344;-65
2023/04/28 11:28:53;;;;;;;4.80;2.72;;;22.60;99.90;;;;;;5050480;28;20430;-66
2023/04/28 11:31:23;;;;;;;5.22;3.45;;;22.60;99.90;;;;;;5050357;28;20677;-65
2023/04/28 11:33:53;;;;;;;3.35;2.55;;;22.70;99.90;;;;;;5051289;28;20229;-65
2023/04/28 11:36:24;;;;;;;3.35;2.40;;;22.60;99.90;;;;;;5050736;28;20259;-66
2023/04/28 11:38:51;;;;;;;4.38;2.97;;;22.50;99.90;;;;;;5050333;28;20675;-65
2023/04/28 11:41:17;;;;;;;5.15;4.13;;;22.30;99.90;;;;;;5050297;28;20217;-67
2023/04/28 11:43:44;;;;;;;2.60;2.33;;;22.20;99.90;;;;;;5050428;28;20229;-66
2023/04/28 11:46:16;;;;;;;3.03;2.72;;;22.00;99.90;;;;;;5052342;28;20755;-67
2023/04/28 11:48:45;;;;;;;4.88;3.50;;;22.00;99.90;;;;;;5055434;28;20287;-65
2023/04/28 11:51:34;;;;;;;4.85;2.88;;;22.20;99.90;;;;;;5055482;28;20344;-64
2023/04/28 11:54:01;;;;;;;2.85;2.50;;;22.50;99.90;;;;;;5055673;28;20380;-69
2023/04/28 11:56:28;;;;;;;2.42;2.15;;;22.70;99.90;;;;;;5055866;28;20206;-65
2023/04/28 11:59:03;;;;;;;13.70;12.23;;;22.90;99.90;;;;;;5055829;28;20647;-65
2023/04/28 12:01:30;;;;;;;6.70;5.47;;;23.10;99.90;;;;;;5055017;28;20204;-65
2023/04/28 12:03:58;;;;;;;6.28;3.33;;;23.20;99.90;;;;;;5055159;28;20232;-65
2023/04/28 12:06:25;;;;;;;6.63;2.78;;;23.10;99.90;;;;;;5055046;28;20211;-66
2023/04/28 12:08:51;;;;;;;10.05;8.45;;;23.00;99.90;;;;;;5055287;28;20252;-65
2023/04/28 12:11:20;;;;;;;5.75;3.78;;;22.90;99.90;;;;;;5055136;28;20232;-66
2023/04/28 12:14:06;;;;;;;2.65;1.65;;;22.80;99.90;;;;;;5055296;28;20493;-65
2023/04/28 12:16:43;;;;;;;3.10;1.58;;;22.80;99.90;;;;;;5054850;28;20599;-66
2023/04/28 12:19:12;;;;;;;3.92;1.20;;;22.70;99.90;;;;;;5054593;28;20233;-68
2023/04/28 12:21:39;;;;;;;1.83;0.90;;;22.70;99.90;;;;;;5054848;28;20220;-67
2023/04/28 12:24:17;;;;;;;1.15;1.05;;;22.50;99.90;;;;;;5055031;28;20642;-68
2023/04/28 12:26:44;;;;;;;1.17;0.90;;;22.50;99.90;;;;;;5054671;28;20581;-65
2023/04/28 12:29:38;;;;;;;2.15;1.65;;;22.40;99.90;;;;;;5054652;28;20252;-66
2023/04/28 12:32:09;;;;;;;1.23;1.05;;;22.40;99.90;;;;;;5054354;28;20259;-66
2023/04/28 12:34:40;;;;;;;3.08;0.90;;;22.40;99.90;;;;;;5054753;28;20202;-64
2023/04/28 12:37:07;;;;;;;1.75;0.80;;;22.40;99.90;;;;;;5054668;28;20619;-65
2023/04/28 12:39:37;;;;;;;1.60;0.60;;;22.40;99.90;;;;;;5054690;28;20233;-66
2023/04/28 12:42:05;;;;;;;2.70;1.02;;;22.00;99.90;;;;;;5054082;28;20209;-64
2023/04/28 12:44:36;;;;;;;1.73;1.55;;;21.60;99.90;;;;;;5054581;28;20226;-64
2023/04/28 12:47:04;;;;;;;2.65;1.75;;;21.00;99.90;;;;;;5054429;28;20212;-65
2023/04/28 12:49:30;;;;;;;0.43;0.30;;;20.60;99.90;;;;;;5054238;28;20225;-64
2023/04/28 12:51:58;;;;;;;1.13;0.50;;;20.20;99.90;;;;;;5053966;28;20263;-65